Home   Weather   India   Tiruchirappalli   Past weeks
Flag for India

Past Weather in Tiruchirappalli, Tamil Nadu, India — Yesterday and Last 2 Weeks

Currently: 84 °F. Fog. (Weather station: Tiruchchirapalli, India). See more current weather

Past Weather in Tiruchirappalli — Graph

°F

Tiruchirappalli Temperature Yesterday

Maximum temperature yesterday: 99 °F (at 2:00 pm)
Minimum temperature yesterday: 75 °F (at 5:00 am)
Average temperature yesterday: 86 °F

High & Low Weather Summary for the Past Weeks

 TemperatureHumidityPressure
High100 °F (Feb 22, 4:00 pm)94% (Feb 18, 3:30 am)30.01 "Hg (Feb 18, 3:30 am)
Low72 °F (Feb 18, 6:30 am)27% (Mar 2, 4:00 pm)29.74 "Hg (Feb 23, 4:30 pm)
Average85 °F69%29.89 "Hg
* Reported Feb 17 8:00 am — Mar 3 7:30 am, Tiruchirappalli. Weather by CustomWeather, © 2024

Note: Actual official high and low records may vary slightly from our data, if they occured in-between our weather recording intervals... More about our weather records

Tiruchirappalli Weather History for the Previous 24 Hours

Scroll right to see more
 ConditionsComfort  
Time TempWeatherWind HumidityBarometerVisibility
7:30 am
Sun, Mar 3
79 °FFog.7 mph89%29.95 "Hg1 mi
6:30 am77 °FFog.7 mph89%29.92 "Hg1 mi
6:00 am75 °FFog.3 mph94%29.92 "Hg2 mi
5:30 am75 °FFog.3 mph94%29.89 "Hg2 mi
5:00 am75 °FFog.5 mph94%29.89 "Hg2 mi
4:30 am75 °FFog.5 mph94%29.89 "Hg2 mi
4:00 am77 °FFog.5 mph89%29.89 "Hg2 mi
3:30 am77 °FFog.6 mph89%29.89 "Hg2 mi
3:00 am77 °FFog.6 mph89%29.89 "Hg2 mi
2:30 am77 °FFog.6 mph89%29.89 "Hg2 mi
2:00 am77 °FFog.5 mph89%29.89 "Hg2 mi
1:30 am77 °FFog.3 mph89%29.89 "Hg2 mi
1:00 am77 °FFog.3 mph89%29.89 "Hg2 mi
12:30 am79 °FFog.5 mph84%29.92 "Hg2 mi
12:00 am79 °FFog.7 mph84%29.92 "Hg2 mi
11:30 pm
Sat, Mar 2
81 °FFog.7 mph79%29.92 "Hg2 mi
11:00 pm81 °FHaze.6 mph79%29.92 "Hg2 mi
10:30 pm81 °FHaze.9 mph79%29.92 "Hg2 mi
10:00 pm82 °FHaze.10 mph74%29.92 "Hg2 mi
9:30 pm84 °FHaze.9 mph70%29.92 "Hg2 mi
9:00 pm86 °FHaze.9 mph66%29.92 "Hg2 mi
8:30 pm88 °FHaze.9 mph62%29.89 "Hg2 mi
8:00 pm88 °FHaze.12 mph62%29.89 "Hg2 mi
7:30 pm88 °FPassing clouds.7 mph55%29.86 "Hg3 mi
6:30 pm91 °FScattered clouds.9 mph44%29.83 "Hg4 mi
6:00 pm95 °FScattered clouds.7 mph36%29.83 "Hg4 mi
5:30 pm97 °FScattered clouds.10 mph32%29.83 "Hg4 mi
5:00 pm99 °FScattered clouds.9 mph27%29.80 "Hg4 mi
4:00 pm99 °FScattered clouds.9 mph27%29.80 "Hg4 mi
3:30 pm99 °FScattered clouds.9 mph29%29.80 "Hg4 mi
3:00 pm99 °FScattered clouds.6 mph29%29.83 "Hg4 mi
2:30 pm99 °FScattered clouds.12 mph31%29.86 "Hg4 mi
2:00 pm99 °FScattered clouds.5 mph33%29.86 "Hg4 mi
1:30 pm97 °FScattered clouds.9 mph34%29.89 "Hg4 mi
1:00 pm95 °FScattered clouds.7 mph44%29.89 "Hg3 mi
12:30 pm95 °FScattered clouds.7 mph47%29.92 "Hg3 mi
12:00 pm93 °FScattered clouds.2 mph53%29.95 "Hg3 mi
11:30 am91 °FScattered clouds.7 mph56%29.98 "Hg3 mi
11:00 am91 °FScattered clouds.7 mph56%29.98 "Hg3 mi
10:30 am90 °FScattered clouds.6 mph63%29.98 "Hg3 mi
10:00 am88 °FScattered clouds.3 mph66%30.01 "Hg2 mi
9:30 am86 °FScattered clouds.6 mph70%30.01 "Hg2 mi
9:00 am84 °FFog.2 mph74%29.98 "Hg2 mi
Weather by CustomWeather, © 2024

See weather overview